sensor_id;sensor_type;location;lat;lon;timestamp;temperature;humidity
16929;DHT22;8581;47.334;11.190;2023-03-21T00:01:26;5.50;99.90
16929;DHT22;8581;47.334;11.190;2023-03-21T00:03:58;5.50;99.90
16929;DHT22;8581;47.334;11.190;2023-03-21T00:06:29;5.60;99.90
16929;DHT22;8581;47.334;11.190;2023-03-21T00:09:01;5.50;99.90
16929;DHT22;8581;47.334;11.190;2023-03-21T00:11:32;5.40;99.90
16929;DHT22;8581;47.334;11.190;2023-03-21T00:14:04;5.50;99.90
16929;DHT22;8581;47.334;11.190;2023-03-21T00:16:36;5.40;99.90
16929;DHT22;8581;47.334;11.190;2023-03-21T00:19:07;5.30;99.90
16929;DHT22;8581;47.334;11.190;2023-03-21T00:21:39;5.30;99.90
16929;DHT22;8581;47.334;11.190;2023-03-21T00:24:11;5.20;99.90
16929;DHT22;8581;47.334;11.190;2023-03-21T00:26:42;5.20;99.90
16929;DHT22;8581;47.334;11.190;2023-03-21T00:29:14;5.20;99.90
16929;DHT22;8581;47.334;11.190;2023-03-21T00:31:45;5.30;99.90
16929;DHT22;8581;47.334;11.190;2023-03-21T00:34:17;5.30;99.90
16929;DHT22;8581;47.334;11.190;2023-03-21T00:36:48;5.30;99.90
16929;DHT22;8581;47.334;11.190;2023-03-21T00:39:20;5.30;99.90
16929;DHT22;8581;47.334;11.190;2023-03-21T00:41:52;5.30;99.90
16929;DHT22;8581;47.334;11.190;2023-03-21T00:44:23;5.50;99.90
16929;DHT22;8581;47.334;11.190;2023-03-21T00:46:55;5.40;99.90
16929;DHT22;8581;47.334;11.190;2023-03-21T00:49:27;5.40;99.90
16929;DHT22;8581;47.334;11.190;2023-03-21T00:51:59;5.40;99.90
16929;DHT22;8581;47.334;11.190;2023-03-21T00:54:30;5.40;99.90
16929;DHT22;8581;47.334;11.190;2023-03-21T00:57:02;5.50;99.90
16929;DHT22;8581;47.334;11.190;2023-03-21T00:59:33;5.50;99.90
16929;DHT22;8581;47.334;11.190;2023-03-21T01:02:05;5.50;99.90
16929;DHT22;8581;47.334;11.190;2023-03-21T01:04:37;5.50;99.90
16929;DHT22;8581;47.334;11.190;2023-03-21T01:07:09;5.60;99.90
16929;DHT22;8581;47.334;11.190;2023-03-21T01:09:40;5.60;99.90
16929;DHT22;8581;47.334;11.190;2023-03-21T01:12:12;5.50;99.90
16929;DHT22;8581;47.334;11.190;2023-03-21T01:14:44;5.50;99.90
16929;DHT22;8581;47.334;11.190;2023-03-21T01:17:15;5.50;99.90
16929;DHT22;8581;47.334;11.190;2023-03-21T01:19:47;5.60;99.90
16929;DHT22;8581;47.334;11.190;2023-03-21T01:22:18;5.50;99.90
16929;DHT22;8581;47.334;11.190;2023-03-21T01:24:50;5.60;99.90
16929;DHT22;8581;47.334;11.190;2023-03-21T01:27:22;5.60;99.90
16929;DHT22;8581;47.334;11.190;2023-03-21T01:29:53;5.60;99.90
16929;DHT22;8581;47.334;11.190;2023-03-21T01:32:25;5.60;99.90
16929;DHT22;8581;47.334;11.190;2023-03-21T01:34:56;5.90;99.90
16929;DHT22;8581;47.334;11.190;2023-03-21T01:37:28;5.90;99.90
16929;DHT22;8581;47.334;11.190;2023-03-21T01:40:00;5.70;99.90
16929;DHT22;8581;47.334;11.190;2023-03-21T01:42:31;5.80;99.90
16929;DHT22;8581;47.334;11.190;2023-03-21T01:45:05;5.60;99.90
16929;DHT22;8581;47.334;11.190;2023-03-21T01:47:35;5.60;99.90
16929;DHT22;8581;47.334;11.190;2023-03-21T01:50:07;5.60;99.90
16929;DHT22;8581;47.334;11.190;2023-03-21T01:52:39;5.60;99.90
16929;DHT22;8581;47.334;11.190;2023-03-21T01:55:11;5.70;99.90
16929;DHT22;8581;47.334;11.190;2023-03-21T01:57:44;5.50;99.90
16929;DHT22;8581;47.334;11.190;2023-03-21T02:00:15;5.50;99.90
16929;DHT22;8581;47.334;11.190;2023-03-21T02:02:46;5.50;99.90
16929;DHT22;8581;47.334;11.190;2023-03-21T02:05:23;5.50;99.90
16929;DHT22;8581;47.334;11.190;2023-03-21T02:07:53;5.50;99.90
16929;DHT22;8581;47.334;11.190;2023-03-21T02:10:25;5.40;99.90
16929;DHT22;8581;47.334;11.190;2023-03-21T02:12:57;5.40;99.90
16929;DHT22;8581;47.334;11.190;2023-03-21T02:15:28;5.40;99.90
16929;DHT22;8581;47.334;11.190;2023-03-21T02:18:03;5.50;99.90
16929;DHT22;8581;47.334;11.190;2023-03-21T02:20:39;5.30;99.90
16929;DHT22;8581;47.334;11.190;2023-03-21T02:23:32;5.30;99.90
16929;DHT22;8581;47.334;11.190;2023-03-21T02:29:06;5.40;99.90
16929;DHT22;8581;47.334;11.190;2023-03-21T02:31:39;5.40;99.90
16929;DHT22;8581;47.334;11.190;2023-03-21T02:34:36;5.40;99.90
16929;DHT22;8581;47.334;11.190;2023-03-21T02:37:18;5.40;99.90
16929;DHT22;8581;47.334;11.190;2023-03-21T02:39:54;5.40;99.90
16929;DHT22;8581;47.334;11.190;2023-03-21T02:43:12;5.30;99.90
16929;DHT22;8581;47.334;11.190;2023-03-21T02:45:29;5.10;99.90
16929;DHT22;8581;47.334;11.190;2023-03-21T02:48:00;5.20;99.90
16929;DHT22;8581;47.334;11.190;2023-03-21T02:50:32;5.20;99.90
16929;DHT22;8581;47.334;11.190;2023-03-21T02:53:03;5.20;99.90
16929;DHT22;8581;47.334;11.190;2023-03-21T02:55:34;5.10;99.90
16929;DHT22;8581;47.334;11.190;2023-03-21T02:58:07;5.10;99.90
16929;DHT22;8581;47.334;11.190;2023-03-21T03:00:38;5.10;99.90
16929;DHT22;8581;47.334;11.190;2023-03-21T03:03:10;5.20;99.90
16929;DHT22;8581;47.334;11.190;2023-03-21T03:05:44;5.30;99.90
16929;DHT22;8581;47.334;11.190;2023-03-21T03:08:55;5.30;99.90
16929;DHT22;8581;47.334;11.190;2023-03-21T03:14:07;5.10;99.90
16929;DHT22;8581;47.334;11.190;2023-03-21T03:16:42;5.20;99.90
16929;DHT22;8581;47.334;11.190;2023-03-21T03:19:13;5.10;99.90
16929;DHT22;8581;47.334;11.190;2023-03-21T03:21:54;5.10;99.90
16929;DHT22;8581;47.334;11.190;2023-03-21T03:24:32;5.00;99.90
16929;DHT22;8581;47.334;11.190;2023-03-21T03:27:06;5.00;99.90
16929;DHT22;8581;47.334;11.190;2023-03-21T03:29:37;5.10;99.90
16929;DHT22;8581;47.334;11.190;2023-03-21T03:32:19;5.20;99.90
16929;DHT22;8581;47.334;11.190;2023-03-21T03:34:51;5.20;99.90
16929;DHT22;8581;47.334;11.190;2023-03-21T03:37:22;5.20;99.90
16929;DHT22;8581;47.334;11.190;2023-03-21T03:39:56;5.20;99.90
16929;DHT22;8581;47.334;11.190;2023-03-21T03:42:27;5.20;99.90
16929;DHT22;8581;47.334;11.190;2023-03-21T03:44:58;5.10;99.90
16929;DHT22;8581;47.334;11.190;2023-03-21T03:47:37;5.00;99.90
16929;DHT22;8581;47.334;11.190;2023-03-21T03:50:31;5.00;99.90
16929;DHT22;8581;47.334;11.190;2023-03-21T03:53:03;5.00;99.90
16929;DHT22;8581;47.334;11.190;2023-03-21T03:55:32;4.90;99.90
16929;DHT22;8581;47.334;11.190;2023-03-21T03:58:04;4.80;99.90
16929;DHT22;8581;47.334;11.190;2023-03-21T04:00:36;4.90;99.90
16929;DHT22;8581;47.334;11.190;2023-03-21T04:03:07;4.80;99.90
16929;DHT22;8581;47.334;11.190;2023-03-21T04:05:39;4.80;99.90
16929;DHT22;8581;47.334;11.190;2023-03-21T04:08:12;4.80;99.90
16929;DHT22;8581;47.334;11.190;2023-03-21T04:10:43;4.80;99.90
16929;DHT22;8581;47.334;11.190;2023-03-21T04:13:15;4.70;99.90
16929;DHT22;8581;47.334;11.190;2023-03-21T04:15:46;4.70;99.90
16929;DHT22;8581;47.334;11.190;2023-03-21T04:18:18;4.70;99.90
16929;DHT22;8581;47.334;11.190;2023-03-21T04:20:50;4.70;99.90
16929;DHT22;8581;47.334;11.190;2023-03-21T04:23:21;4.60;99.90
16929;DHT22;8581;47.334;11.190;2023-03-21T04:25:53;4.60;99.90
16929;DHT22;8581;47.334;11.190;2023-03-21T04:28:25;4.70;99.90
16929;DHT22;8581;47.334;11.190;2023-03-21T04:30:56;4.70;99.90
16929;DHT22;8581;47.334;11.190;2023-03-21T04:33:28;4.70;99.90
16929;DHT22;8581;47.334;11.190;2023-03-21T04:35:59;4.70;99.90
16929;DHT22;8581;47.334;11.190;2023-03-21T04:38:31;4.70;99.90
16929;DHT22;8581;47.334;11.190;2023-03-21T04:41:03;4.70;99.90
16929;DHT22;8581;47.334;11.190;2023-03-21T04:43:34;4.70;99.90
16929;DHT22;8581;47.334;11.190;2023-03-21T04:46:06;4.60;99.90
16929;DHT22;8581;47.334;11.190;2023-03-21T04:48:37;4.60;99.90
16929;DHT22;8581;47.334;11.190;2023-03-21T04:51:09;4.50;99.90
16929;DHT22;8581;47.334;11.190;2023-03-21T04:53:41;4.60;99.90
16929;DHT22;8581;47.334;11.190;2023-03-21T04:56:12;4.60;99.90
16929;DHT22;8581;47.334;11.190;2023-03-21T04:58:44;4.50;99.90
16929;DHT22;8581;47.334;11.190;2023-03-21T05:01:15;4.40;99.90
16929;DHT22;8581;47.334;11.190;2023-03-21T05:03:47;4.40;99.90
16929;DHT22;8581;47.334;11.190;2023-03-21T05:06:19;4.40;99.90
16929;DHT22;8581;47.334;11.190;2023-03-21T05:08:50;4.40;99.90
16929;DHT22;8581;47.334;11.190;2023-03-21T05:11:22;4.20;99.90
16929;DHT22;8581;47.334;11.190;2023-03-21T05:13:53;4.20;99.90
16929;DHT22;8581;47.334;11.190;2023-03-21T05:16:25;4.10;99.90
16929;DHT22;8581;47.334;11.190;2023-03-21T05:18:57;4.20;99.90
16929;DHT22;8581;47.334;11.190;2023-03-21T05:21:29;4.30;99.90
16929;DHT22;8581;47.334;11.190;2023-03-21T05:24:01;4.50;99.90
16929;DHT22;8581;47.334;11.190;2023-03-21T05:26:32;4.40;99.90
16929;DHT22;8581;47.334;11.190;2023-03-21T05:29:04;4.50;99.90
16929;DHT22;8581;47.334;11.190;2023-03-21T05:31:35;4.60;99.90
16929;DHT22;8581;47.334;11.190;2023-03-21T05:34:07;4.40;99.90
16929;DHT22;8581;47.334;11.190;2023-03-21T05:36:39;4.30;99.90
16929;DHT22;8581;47.334;11.190;2023-03-21T05:39:10;4.30;99.90
16929;DHT22;8581;47.334;11.190;2023-03-21T05:41:42;4.40;99.90
16929;DHT22;8581;47.334;11.190;2023-03-21T05:44:13;4.40;99.90
16929;DHT22;8581;47.334;11.190;2023-03-21T05:46:45;4.50;99.90
16929;DHT22;8581;47.334;11.190;2023-03-21T05:49:17;4.70;99.90
16929;DHT22;8581;47.334;11.190;2023-03-21T05:51:49;4.90;99.90
16929;DHT22;8581;47.334;11.190;2023-03-21T05:54:21;5.00;99.90
16929;DHT22;8581;47.334;11.190;2023-03-21T05:56:52;5.10;99.90
16929;DHT22;8581;47.334;11.190;2023-03-21T05:59:24;4.90;99.90
16929;DHT22;8581;47.334;11.190;2023-03-21T06:01:55;5.00;99.90
16929;DHT22;8581;47.334;11.190;2023-03-21T06:04:27;5.00;99.90
16929;DHT22;8581;47.334;11.190;2023-03-21T06:06:59;5.10;99.90
16929;DHT22;8581;47.334;11.190;2023-03-21T06:09:33;5.20;99.90
16929;DHT22;8581;47.334;11.190;2023-03-21T06:12:07;5.30;99.90
16929;DHT22;8581;47.334;11.190;2023-03-21T06:14:39;5.40;99.90
16929;DHT22;8581;47.334;11.190;2023-03-21T06:17:10;5.50;99.90
16929;DHT22;8581;47.334;11.190;2023-03-21T06:19:42;5.50;99.90
16929;DHT22;8581;47.334;11.190;2023-03-21T06:22:13;5.70;99.90
16929;DHT22;8581;47.334;11.190;2023-03-21T06:24:45;5.80;99.90
16929;DHT22;8581;47.334;11.190;2023-03-21T06:27:17;5.90;99.90
16929;DHT22;8581;47.334;11.190;2023-03-21T06:29:48;6.00;99.90
16929;DHT22;8581;47.334;11.190;2023-03-21T06:32:21;6.20;99.90
16929;DHT22;8581;47.334;11.190;2023-03-21T06:34:52;6.00;99.90
16929;DHT22;8581;47.334;11.190;2023-03-21T06:37:24;6.00;99.90
16929;DHT22;8581;47.334;11.190;2023-03-21T06:39:55;6.00;99.90
16929;DHT22;8581;47.334;11.190;2023-03-21T06:42:27;6.10;99.90
16929;DHT22;8581;47.334;11.190;2023-03-21T06:44:59;6.10;99.90
16929;DHT22;8581;47.334;11.190;2023-03-21T06:47:30;6.20;99.90
16929;DHT22;8581;47.334;11.190;2023-03-21T06:50:02;6.40;99.90
16929;DHT22;8581;47.334;11.190;2023-03-21T06:52:33;6.50;99.90
16929;DHT22;8581;47.334;11.190;2023-03-21T06:55:06;6.60;99.90
16929;DHT22;8581;47.334;11.190;2023-03-21T06:57:37;6.90;99.90
16929;DHT22;8581;47.334;11.190;2023-03-21T07:00:10;6.90;99.90
16929;DHT22;8581;47.334;11.190;2023-03-21T07:02:42;6.80;99.90
16929;DHT22;8581;47.334;11.190;2023-03-21T07:05:14;6.90;99.90
16929;DHT22;8581;47.334;11.190;2023-03-21T07:07:45;7.00;99.90
16929;DHT22;8581;47.334;11.190;2023-03-21T07:10:17;7.00;99.90
16929;DHT22;8581;47.334;11.190;2023-03-21T07:12:48;7.10;99.90
16929;DHT22;8581;47.334;11.190;2023-03-21T07:15:20;7.30;99.90
16929;DHT22;8581;47.334;11.190;2023-03-21T07:17:52;7.30;99.90
16929;DHT22;8581;47.334;11.190;2023-03-21T07:20:23;7.50;99.90
16929;DHT22;8581;47.334;11.190;2023-03-21T07:22:55;7.50;99.90
16929;DHT22;8581;47.334;11.190;2023-03-21T07:25:26;7.40;99.90
16929;DHT22;8581;47.334;11.190;2023-03-21T07:27:58;7.50;99.90
16929;DHT22;8581;47.334;11.190;2023-03-21T07:30:30;7.70;99.90
16929;DHT22;8581;47.334;11.190;2023-03-21T07:33:01;7.60;99.90
16929;DHT22;8581;47.334;11.190;2023-03-21T07:35:33;7.80;99.90
16929;DHT22;8581;47.334;11.190;2023-03-21T07:38:04;7.60;99.90
16929;DHT22;8581;47.334;11.190;2023-03-21T07:40:36;7.70;99.90
16929;DHT22;8581;47.334;11.190;2023-03-21T07:43:08;7.80;99.90
16929;DHT22;8581;47.334;11.190;2023-03-21T07:45:39;7.70;99.90
16929;DHT22;8581;47.334;11.190;2023-03-21T07:48:11;7.80;99.90
16929;DHT22;8581;47.334;11.190;2023-03-21T07:50:43;7.90;99.90
16929;DHT22;8581;47.334;11.190;2023-03-21T07:53:15;7.80;99.90
16929;DHT22;8581;47.334;11.190;2023-03-21T07:55:51;8.10;99.90
16929;DHT22;8581;47.334;11.190;2023-03-21T07:58:23;8.20;99.90
16929;DHT22;8581;47.334;11.190;2023-03-21T08:00:54;8.40;99.90
16929;DHT22;8581;47.334;11.190;2023-03-21T08:03:26;8.50;99.90
16929;DHT22;8581;47.334;11.190;2023-03-21T08:05:58;8.90;99.90
16929;DHT22;8581;47.334;11.190;2023-03-21T08:08:29;9.50;99.90
16929;DHT22;8581;47.334;11.190;2023-03-21T08:11:02;9.50;99.90
16929;DHT22;8581;47.334;11.190;2023-03-21T08:13:33;9.30;99.90
16929;DHT22;8581;47.334;11.190;2023-03-21T08:16:05;9.40;99.90
16929;DHT22;8581;47.334;11.190;2023-03-21T08:18:36;9.50;99.90
16929;DHT22;8581;47.334;11.190;2023-03-21T08:21:08;9.60;99.90
16929;DHT22;8581;47.334;11.190;2023-03-21T08:23:40;9.40;99.90
16929;DHT22;8581;47.334;11.190;2023-03-21T08:26:12;9.00;99.90
16929;DHT22;8581;47.334;11.190;2023-03-21T08:28:44;9.00;99.90
16929;DHT22;8581;47.334;11.190;2023-03-21T08:31:15;8.90;99.90
16929;DHT22;8581;47.334;11.190;2023-03-21T08:33:47;8.90;99.90
16929;DHT22;8581;47.334;11.190;2023-03-21T08:36:18;9.20;99.90
16929;DHT22;8581;47.334;11.190;2023-03-21T08:38:50;9.80;99.90
16929;DHT22;8581;47.334;11.190;2023-03-21T08:41:22;9.80;99.90
16929;DHT22;8581;47.334;11.190;2023-03-21T08:43:53;9.90;99.90
16929;DHT22;8581;47.334;11.190;2023-03-21T08:46:25;10.00;99.90
16929;DHT22;8581;47.334;11.190;2023-03-21T08:48:56;10.00;99.90
16929;DHT22;8581;47.334;11.190;2023-03-21T08:51:28;9.90;99.90
16929;DHT22;8581;47.334;11.190;2023-03-21T08:54:00;9.60;99.90
16929;DHT22;8581;47.334;11.190;2023-03-21T08:59:11;10.10;99.90
16929;DHT22;8581;47.334;11.190;2023-03-21T09:01:45;10.40;99.90
16929;DHT22;8581;47.334;11.190;2023-03-21T09:04:16;10.70;99.90
16929;DHT22;8581;47.334;11.190;2023-03-21T09:06:48;10.80;99.90
16929;DHT22;8581;47.334;11.190;2023-03-21T09:09:19;11.30;99.90
16929;DHT22;8581;47.334;11.190;2023-03-21T09:11:51;11.60;99.90
16929;DHT22;8581;47.334;11.190;2023-03-21T09:14:22;11.60;99.90
16929;DHT22;8581;47.334;11.190;2023-03-21T09:16:54;11.20;99.90
16929;DHT22;8581;47.334;11.190;2023-03-21T09:19:26;10.80;99.90
16929;DHT22;8581;47.334;11.190;2023-03-21T09:21:57;10.20;99.90
16929;DHT22;8581;47.334;11.190;2023-03-21T09:24:29;10.20;99.90
16929;DHT22;8581;47.334;11.190;2023-03-21T09:27:00;10.70;99.90
16929;DHT22;8581;47.334;11.190;2023-03-21T09:29:32;10.70;99.90
16929;DHT22;8581;47.334;11.190;2023-03-21T09:32:06;10.50;99.90
16929;DHT22;8581;47.334;11.190;2023-03-21T09:34:38;10.60;99.90
16929;DHT22;8581;47.334;11.190;2023-03-21T09:37:09;11.00;99.90
16929;DHT22;8581;47.334;11.190;2023-03-21T09:39:42;11.30;99.90
16929;DHT22;8581;47.334;11.190;2023-03-21T09:42:32;11.30;99.90
16929;DHT22;8581;47.334;11.190;2023-03-21T09:45:10;11.40;99.90
16929;DHT22;8581;47.334;11.190;2023-03-21T09:47:44;11.60;99.90
16929;DHT22;8581;47.334;11.190;2023-03-21T09:50:17;11.70;99.90
16929;DHT22;8581;47.334;11.190;2023-03-21T09:53:00;11.80;99.90
16929;DHT22;8581;47.334;11.190;2023-03-21T09:55:33;11.70;99.90
16929;DHT22;8581;47.334;11.190;2023-03-21T09:58:25;11.40;99.90
16929;DHT22;8581;47.334;11.190;2023-03-21T10:01:02;11.20;99.90
16929;DHT22;8581;47.334;11.190;2023-03-21T10:03:32;11.70;99.90
16929;DHT22;8581;47.334;11.190;2023-03-21T10:06:05;12.20;99.90
16929;DHT22;8581;47.334;11.190;2023-03-21T10:08:37;12.20;99.90
16929;DHT22;8581;47.334;11.190;2023-03-21T10:11:14;11.80;99.90
16929;DHT22;8581;47.334;11.190;2023-03-21T10:13:50;12.30;99.90
16929;DHT22;8581;47.334;11.190;2023-03-21T10:16:28;12.60;99.90
16929;DHT22;8581;47.334;11.190;2023-03-21T10:19:02;13.00;99.90
16929;DHT22;8581;47.334;11.190;2023-03-21T10:21:32;13.20;99.90
16929;DHT22;8581;47.334;11.190;2023-03-21T10:24:04;13.30;99.90
16929;DHT22;8581;47.334;11.190;2023-03-21T10:26:36;13.50;99.90
16929;DHT22;8581;47.334;11.190;2023-03-21T10:29:09;13.50;99.90
16929;DHT22;8581;47.334;11.190;2023-03-21T10:31:39;13.90;99.90
16929;DHT22;8581;47.334;11.190;2023-03-21T10:36:58;13.30;99.90
16929;DHT22;8581;47.334;11.190;2023-03-21T10:39:34;13.80;99.90
16929;DHT22;8581;47.334;11.190;2023-03-21T10:42:06;13.90;99.90
16929;DHT22;8581;47.334;11.190;2023-03-21T10:44:38;13.90;99.90
16929;DHT22;8581;47.334;11.190;2023-03-21T10:47:10;14.50;99.90
16929;DHT22;8581;47.334;11.190;2023-03-21T10:49:41;15.20;99.90
16929;DHT22;8581;47.334;11.190;2023-03-21T10:52:22;14.90;99.90
16929;DHT22;8581;47.334;11.190;2023-03-21T10:54:45;14.40;99.90
16929;DHT22;8581;47.334;11.190;2023-03-21T10:57:20;13.80;99.90
16929;DHT22;8581;47.334;11.190;2023-03-21T10:59:53;14.30;99.90
16929;DHT22;8581;47.334;11.190;2023-03-21T11:02:29;14.30;99.90
16929;DHT22;8581;47.334;11.190;2023-03-21T11:05:34;14.40;99.90
16929;DHT22;8581;47.334;11.190;2023-03-21T11:07:57;13.70;99.90
16929;DHT22;8581;47.334;11.190;2023-03-21T11:10:29;14.50;99.90
16929;DHT22;8581;47.334;11.190;2023-03-21T11:13:01;14.90;99.90
16929;DHT22;8581;47.334;11.190;2023-03-21T11:15:37;15.00;99.90
16929;DHT22;8581;47.334;11.190;2023-03-21T11:18:20;15.40;99.90
16929;DHT22;8581;47.334;11.190;2023-03-21T11:20:54;15.40;99.90
16929;DHT22;8581;47.334;11.190;2023-03-21T11:23:26;15.50;99.90
16929;DHT22;8581;47.334;11.190;2023-03-21T11:25:59;15.30;99.90
16929;DHT22;8581;47.334;11.190;2023-03-21T11:28:35;15.20;99.90
16929;DHT22;8581;47.334;11.190;2023-03-21T11:31:05;15.20;99.90
16929;DHT22;8581;47.334;11.190;2023-03-21T11:33:40;15.70;99.90
16929;DHT22;8581;47.334;11.190;2023-03-21T11:36:26;15.80;99.90
16929;DHT22;8581;47.334;11.190;2023-03-21T11:38:57;15.70;99.90
16929;DHT22;8581;47.334;11.190;2023-03-21T11:41:30;15.60;99.90
16929;DHT22;8581;47.334;11.190;2023-03-21T11:44:00;15.30;99.90
16929;DHT22;8581;47.334;11.190;2023-03-21T11:46:32;15.40;99.90
16929;DHT22;8581;47.334;11.190;2023-03-21T11:49:04;14.90;99.90
16929;DHT22;8581;47.334;11.190;2023-03-21T11:51:40;14.70;99.90
16929;DHT22;8581;47.334;11.190;2023-03-21T11:54:18;14.70;99.90
16929;DHT22;8581;47.334;11.190;2023-03-21T11:56:51;15.10;99.90
16929;DHT22;8581;47.334;11.190;2023-03-21T12:02:23;15.20;99.90
16929;DHT22;8581;47.334;11.190;2023-03-21T12:04:54;15.10;99.90
16929;DHT22;8581;47.334;11.190;2023-03-21T12:07:38;15.40;99.90
16929;DHT22;8581;47.334;11.190;2023-03-21T12:13:02;15.70;99.90
16929;DHT22;8581;47.334;11.190;2023-03-21T12:15:48;15.90;99.90
16929;DHT22;8581;47.334;11.190;2023-03-21T12:22:26;15.60;99.90
16929;DHT22;8581;47.334;11.190;2023-03-21T12:24:11;15.50;99.90
16929;DHT22;8581;47.334;11.190;2023-03-21T12:27:03;15.60;99.90
16929;DHT22;8581;47.334;11.190;2023-03-21T12:29:52;15.00;99.90
16929;DHT22;8581;47.334;11.190;2023-03-21T12:32:39;14.70;99.90
16929;DHT22;8581;47.334;11.190;2023-03-21T12:35:14;14.70;99.90
16929;DHT22;8581;47.334;11.190;2023-03-21T12:41:18;14.80;99.90
16929;DHT22;8581;47.334;11.190;2023-03-21T12:43:43;15.00;99.90
16929;DHT22;8581;47.334;11.190;2023-03-21T12:46:15;15.40;99.90
16929;DHT22;8581;47.334;11.190;2023-03-21T12:48:48;15.50;99.90
16929;DHT22;8581;47.334;11.190;2023-03-21T12:51:19;15.50;99.90
16929;DHT22;8581;47.334;11.190;2023-03-21T12:53:52;15.80;99.90
16929;DHT22;8581;47.334;11.190;2023-03-21T12:56:26;16.00;99.30
16929;DHT22;8581;47.334;11.190;2023-03-21T12:59:03;16.00;99.90
16929;DHT22;8581;47.334;11.190;2023-03-21T13:01:31;16.30;99.40
16929;DHT22;8581;47.334;11.190;2023-03-21T13:06:49;15.90;99.90
16929;DHT22;8581;47.334;11.190;2023-03-21T13:09:27;15.70;99.90
16929;DHT22;8581;47.334;11.190;2023-03-21T13:11:55;15.40;99.90
16929;DHT22;8581;47.334;11.190;2023-03-21T13:14:27;15.40;99.90
16929;DHT22;8581;47.334;11.190;2023-03-21T13:17:03;15.20;99.90
16929;DHT22;8581;47.334;11.190;2023-03-21T13:19:37;15.50;99.90
16929;DHT22;8581;47.334;11.190;2023-03-21T13:22:15;15.00;99.90
16929;DHT22;8581;47.334;11.190;2023-03-21T13:24:48;14.50;99.90
16929;DHT22;8581;47.334;11.190;2023-03-21T13:27:34;14.30;99.90
16929;DHT22;8581;47.334;11.190;2023-03-21T13:30:17;14.80;99.90
16929;DHT22;8581;47.334;11.190;2023-03-21T13:32:42;15.40;99.90
16929;DHT22;8581;47.334;11.190;2023-03-21T13:35:19;15.50;99.90
16929;DHT22;8581;47.334;11.190;2023-03-21T13:37:49;16.10;99.90
16929;DHT22;8581;47.334;11.190;2023-03-21T13:40:25;16.40;99.90
16929;DHT22;8581;47.334;11.190;2023-03-21T13:42:57;17.40;98.50
16929;DHT22;8581;47.334;11.190;2023-03-21T13:45:31;17.70;97.70
16929;DHT22;8581;47.334;11.190;2023-03-21T13:48:03;18.30;98.10
16929;DHT22;8581;47.334;11.190;2023-03-21T13:50:52;19.40;99.90
16929;DHT22;8581;47.334;11.190;2023-03-21T13:53:24;19.70;98.90
16929;DHT22;8581;47.334;11.190;2023-03-21T13:55:58;21.60;94.30
16929;DHT22;8581;47.334;11.190;2023-03-21T13:58:32;22.60;92.40
16929;DHT22;8581;47.334;11.190;2023-03-21T14:01:38;24.10;91.50
16929;DHT22;8581;47.334;11.190;2023-03-21T14:03:57;24.80;87.80
16929;DHT22;8581;47.334;11.190;2023-03-21T14:06:33;25.00;85.70
16929;DHT22;8581;47.334;11.190;2023-03-21T14:09:03;26.00;81.20
16929;DHT22;8581;47.334;11.190;2023-03-21T14:11:34;25.70;76.00
16929;DHT22;8581;47.334;11.190;2023-03-21T14:14:07;24.50;78.10
16929;DHT22;8581;47.334;11.190;2023-03-21T14:16:38;23.40;80.70
16929;DHT22;8581;47.334;11.190;2023-03-21T14:19:09;22.50;82.20
16929;DHT22;8581;47.334;11.190;2023-03-21T14:21:46;21.80;86.80
16929;DHT22;8581;47.334;11.190;2023-03-21T14:24:17;20.50;87.70
16929;DHT22;8581;47.334;11.190;2023-03-21T14:26:49;20.60;89.30
16929;DHT22;8581;47.334;11.190;2023-03-21T14:29:24;20.30;88.40
16929;DHT22;8581;47.334;11.190;2023-03-21T14:31:55;20.20;90.30
16929;DHT22;8581;47.334;11.190;2023-03-21T14:34:28;19.90;88.20
16929;DHT22;8581;47.334;11.190;2023-03-21T14:36:59;20.80;89.40
16929;DHT22;8581;47.334;11.190;2023-03-21T14:39:31;20.50;91.00
16929;DHT22;8581;47.334;11.190;2023-03-21T14:42:03;20.10;92.90
16929;DHT22;8581;47.334;11.190;2023-03-21T14:44:47;19.70;91.90
16929;DHT22;8581;47.334;11.190;2023-03-21T14:47:19;19.50;92.90
16929;DHT22;8581;47.334;11.190;2023-03-21T14:49:50;19.00;93.30
16929;DHT22;8581;47.334;11.190;2023-03-21T14:52:23;18.70;94.60
16929;DHT22;8581;47.334;11.190;2023-03-21T14:54:53;19.00;94.30
16929;DHT22;8581;47.334;11.190;2023-03-21T14:57:26;18.50;94.10
16929;DHT22;8581;47.334;11.190;2023-03-21T14:59:58;18.10;95.10
16929;DHT22;8581;47.334;11.190;2023-03-21T15:02:30;18.00;95.90
16929;DHT22;8581;47.334;11.190;2023-03-21T15:05:09;18.30;96.00
16929;DHT22;8581;47.334;11.190;2023-03-21T15:07:40;18.00;96.20
16929;DHT22;8581;47.334;11.190;2023-03-21T15:10:14;17.70;96.40
16929;DHT22;8581;47.334;11.190;2023-03-21T15:12:52;17.30;96.80
16929;DHT22;8581;47.334;11.190;2023-03-21T15:15:22;17.10;96.80
16929;DHT22;8581;47.334;11.190;2023-03-21T15:17:54;16.00;97.40
16929;DHT22;8581;47.334;11.190;2023-03-21T15:20:25;14.80;99.50
16929;DHT22;8581;47.334;11.190;2023-03-21T15:22:58;14.40;99.70
16929;DHT22;8581;47.334;11.190;2023-03-21T15:25:29;14.30;99.90
16929;DHT22;8581;47.334;11.190;2023-03-21T15:28:00;14.50;99.90
16929;DHT22;8581;47.334;11.190;2023-03-21T15:30:31;14.40;99.90
16929;DHT22;8581;47.334;11.190;2023-03-21T15:33:05;13.70;99.90
16929;DHT22;8581;47.334;11.190;2023-03-21T15:35:37;13.70;99.90
16929;DHT22;8581;47.334;11.190;2023-03-21T15:38:19;13.50;99.90
16929;DHT22;8581;47.334;11.190;2023-03-21T15:40:40;13.70;99.90
16929;DHT22;8581;47.334;11.190;2023-03-21T15:43:15;14.20;99.90
16929;DHT22;8581;47.334;11.190;2023-03-21T15:45:54;14.20;99.90
16929;DHT22;8581;47.334;11.190;2023-03-21T15:48:26;14.00;99.90
16929;DHT22;8581;47.334;11.190;2023-03-21T15:51:09;14.20;99.50
16929;DHT22;8581;47.334;11.190;2023-03-21T15:53:38;14.30;99.80
16929;DHT22;8581;47.334;11.190;2023-03-21T15:56:09;14.70;99.30
16929;DHT22;8581;47.334;11.190;2023-03-21T15:58:42;14.90;99.30
16929;DHT22;8581;47.334;11.190;2023-03-21T16:01:17;14.80;97.90
16929;DHT22;8581;47.334;11.190;2023-03-21T16:03:54;14.80;98.90
16929;DHT22;8581;47.334;11.190;2023-03-21T16:06:20;14.90;98.00
16929;DHT22;8581;47.334;11.190;2023-03-21T16:09:02;14.80;99.90
16929;DHT22;8581;47.334;11.190;2023-03-21T16:11:25;14.20;99.90
16929;DHT22;8581;47.334;11.190;2023-03-21T16:13:56;14.40;99.90
16929;DHT22;8581;47.334;11.190;2023-03-21T16:16:28;14.30;99.80
16929;DHT22;8581;47.334;11.190;2023-03-21T16:18:59;14.10;99.90
16929;DHT22;8581;47.334;11.190;2023-03-21T16:21:30;13.80;99.90
16929;DHT22;8581;47.334;11.190;2023-03-21T16:24:02;13.60;99.90
16929;DHT22;8581;47.334;11.190;2023-03-21T16:26:36;13.50;99.90
16929;DHT22;8581;47.334;11.190;2023-03-21T16:29:07;13.50;99.90
16929;DHT22;8581;47.334;11.190;2023-03-21T16:31:38;13.30;99.90
16929;DHT22;8581;47.334;11.190;2023-03-21T16:34:10;13.00;99.90
16929;DHT22;8581;47.334;11.190;2023-03-21T16:36:41;12.90;99.90
16929;DHT22;8581;47.334;11.190;2023-03-21T16:39:17;12.70;99.90
16929;DHT22;8581;47.334;11.190;2023-03-21T16:41:47;12.40;99.90
16929;DHT22;8581;47.334;11.190;2023-03-21T16:44:19;12.40;99.90